<?xml version="1.0" encoding="UTF-8" standalone="no" ?>
<gpx xmlns="http://www.topografix.com/GPX/1/1" xmlns:xsi="http://www.w3.org/2001/XMLSchema-instance" xsi:schemaLocation="http://www.topografix.com/GPX/1/1 http://www.topografix.com/GPX/1/1/gpx.xsd" version="1.1" creator="VisuGPX - https://www.visugpx.com">
  <metadata>
    <name>VacancesDricouZoe</name>
  </metadata>
  <trk>
    <name><![CDATA[Journal actif: 2021-06-30 17:06]]></name>
    <trkseg>
      <trkpt lat="45.08667" lon="-1.14849">
        <ele>16</ele>
        <time>2021-06-30T19:06:19Z</time>
      </trkpt>
      <trkpt lat="45.08661" lon="-1.14847">
        <ele>15.52</ele>
        <time>2021-06-30T19:06:27Z</time>
      </trkpt>
      <trkpt lat="45.08653" lon="-1.14844">
        <ele>15.52</ele>
        <time>2021-06-30T19:06:28Z</time>
      </trkpt>
      <trkpt lat="45.08653" lon="-1.14844">
        <ele>15.52</ele>
        <time>2021-06-30T19:06:29Z</time>
      </trkpt>
      <trkpt lat="45.08582" lon="-1.14822">
        <ele>12.15</ele>
        <time>2021-06-30T19:06:40Z</time>
      </trkpt>
      <trkpt lat="45.0851" lon="-1.14799">
        <ele>12.15</ele>
        <time>2021-06-30T19:06:51Z</time>
      </trkpt>
      <trkpt lat="45.08405" lon="-1.1477">
        <ele>12.15</ele>
        <time>2021-06-30T19:07:02Z</time>
      </trkpt>
      <trkpt lat="45.08298" lon="-1.14737">
        <ele>14.56</ele>
        <time>2021-06-30T19:07:13Z</time>
      </trkpt>
      <trkpt lat="45.08289" lon="-1.14733">
        <ele>13.6</ele>
        <time>2021-06-30T19:07:14Z</time>
      </trkpt>
      <trkpt lat="45.08207" lon="-1.14687">
        <ele>13.12</ele>
        <time>2021-06-30T19:07:24Z</time>
      </trkpt>
      <trkpt lat="45.08117" lon="-1.14606">
        <ele>11.19</ele>
        <time>2021-06-30T19:07:36Z</time>
      </trkpt>
      <trkpt lat="45.08107" lon="-1.14597">
        <ele>13.6</ele>
        <time>2021-06-30T19:07:43Z</time>
      </trkpt>
      <trkpt lat="45.08091" lon="-1.14582">
        <ele>13.6</ele>
        <time>2021-06-30T19:08:58Z</time>
      </trkpt>
      <trkpt lat="45.08013" lon="-1.14544">
        <ele>14.08</ele>
        <time>2021-06-30T19:09:11Z</time>
      </trkpt>
      <trkpt lat="45.07929" lon="-1.14562">
        <ele>14.56</ele>
        <time>2021-06-30T19:09:23Z</time>
      </trkpt>
      <trkpt lat="45.0783" lon="-1.14618">
        <ele>12.63</ele>
        <time>2021-06-30T19:09:35Z</time>
      </trkpt>
      <trkpt lat="45.07706" lon="-1.14689">
        <ele>14.08</ele>
        <time>2021-06-30T19:09:48Z</time>
      </trkpt>
      <trkpt lat="45.07572" lon="-1.14705">
        <ele>15.04</ele>
        <time>2021-06-30T19:09:59Z</time>
      </trkpt>
      <trkpt lat="45.07449" lon="-1.14709">
        <ele>12.15</ele>
        <time>2021-06-30T19:10:10Z</time>
      </trkpt>
      <trkpt lat="45.07332" lon="-1.147">
        <ele>14.08</ele>
        <time>2021-06-30T19:10:23Z</time>
      </trkpt>
      <trkpt lat="45.07324" lon="-1.14697">
        <ele>16.48</ele>
        <time>2021-06-30T19:10:30Z</time>
      </trkpt>
      <trkpt lat="45.07301" lon="-1.14688">
        <ele>15.52</ele>
        <time>2021-06-30T19:10:38Z</time>
      </trkpt>
      <trkpt lat="45.07297" lon="-1.14686">
        <ele>15.04</ele>
        <time>2021-06-30T19:10:39Z</time>
      </trkpt>
      <trkpt lat="45.07293" lon="-1.14685">
        <ele>15.04</ele>
        <time>2021-06-30T19:10:40Z</time>
      </trkpt>
      <trkpt lat="45.07289" lon="-1.14683">
        <ele>15.04</ele>
        <time>2021-06-30T19:10:41Z</time>
      </trkpt>
      <trkpt lat="45.0726" lon="-1.14704">
        <ele>15.52</ele>
        <time>2021-06-30T19:10:48Z</time>
      </trkpt>
      <trkpt lat="45.07259" lon="-1.14709">
        <ele>15.04</ele>
        <time>2021-06-30T19:10:49Z</time>
      </trkpt>
      <trkpt lat="45.07254" lon="-1.14711">
        <ele>15.04</ele>
        <time>2021-06-30T19:10:50Z</time>
      </trkpt>
      <trkpt lat="45.0725" lon="-1.14713">
        <ele>15.04</ele>
        <time>2021-06-30T19:10:51Z</time>
      </trkpt>
      <trkpt lat="45.07246" lon="-1.14715">
        <ele>15.04</ele>
        <time>2021-06-30T19:10:52Z</time>
      </trkpt>
      <trkpt lat="45.07239" lon="-1.14715">
        <ele>15.52</ele>
        <time>2021-06-30T19:10:53Z</time>
      </trkpt>
      <trkpt lat="45.07234" lon="-1.14712">
        <ele>15.04</ele>
        <time>2021-06-30T19:10:54Z</time>
      </trkpt>
      <trkpt lat="45.07229" lon="-1.14702">
        <ele>15.04</ele>
        <time>2021-06-30T19:10:55Z</time>
      </trkpt>
      <trkpt lat="45.07228" lon="-1.14694">
        <ele>14.56</ele>
        <time>2021-06-30T19:10:56Z</time>
      </trkpt>
      <trkpt lat="45.07229" lon="-1.14682">
        <ele>14.56</ele>
        <time>2021-06-30T19:10:57Z</time>
      </trkpt>
      <trkpt lat="45.07232" lon="-1.14674">
        <ele>14.08</ele>
        <time>2021-06-30T19:10:58Z</time>
      </trkpt>
      <trkpt lat="45.07233" lon="-1.1467">
        <ele>14.08</ele>
        <time>2021-06-30T19:10:59Z</time>
      </trkpt>
      <trkpt lat="45.07233" lon="-1.1467">
        <ele>13.6</ele>
        <time>2021-06-30T19:11:00Z</time>
      </trkpt>
      <trkpt lat="45.07244" lon="-1.1465">
        <ele>13.6</ele>
        <time>2021-06-30T19:11:01Z</time>
      </trkpt>
      <trkpt lat="45.07243" lon="-1.14641">
        <ele>14.08</ele>
        <time>2021-06-30T19:11:02Z</time>
      </trkpt>
      <trkpt lat="45.07243" lon="-1.1463">
        <ele>14.08</ele>
        <time>2021-06-30T19:11:03Z</time>
      </trkpt>
      <trkpt lat="45.07241" lon="-1.14589">
        <ele>14.08</ele>
        <time>2021-06-30T19:11:05Z</time>
      </trkpt>
      <trkpt lat="45.0724" lon="-1.14574">
        <ele>15.04</ele>
        <time>2021-06-30T19:11:06Z</time>
      </trkpt>
      <trkpt lat="45.07228" lon="-1.14518">
        <ele>14.56</ele>
        <time>2021-06-30T19:11:11Z</time>
      </trkpt>
      <trkpt lat="45.07176" lon="-1.14408">
        <ele>10.71</ele>
        <time>2021-06-30T19:11:20Z</time>
      </trkpt>
      <trkpt lat="45.07166" lon="-1.14397">
        <ele>12.63</ele>
        <time>2021-06-30T19:11:23Z</time>
      </trkpt>
      <trkpt lat="45.07162" lon="-1.14392">
        <ele>13.12</ele>
        <time>2021-06-30T19:11:24Z</time>
      </trkpt>
      <trkpt lat="45.07157" lon="-1.14389">
        <ele>13.12</ele>
        <time>2021-06-30T19:11:25Z</time>
      </trkpt>
      <trkpt lat="45.07153" lon="-1.14386">
        <ele>12.63</ele>
        <time>2021-06-30T19:11:26Z</time>
      </trkpt>
      <trkpt lat="45.07148" lon="-1.14382">
        <ele>12.63</ele>
        <time>2021-06-30T19:11:27Z</time>
      </trkpt>
      <trkpt lat="45.07138" lon="-1.14386">
        <ele>12.63</ele>
        <time>2021-06-30T19:11:28Z</time>
      </trkpt>
      <trkpt lat="45.07131" lon="-1.14383">
        <ele>12.15</ele>
        <time>2021-06-30T19:11:29Z</time>
      </trkpt>
      <trkpt lat="45.07123" lon="-1.14375">
        <ele>12.15</ele>
        <time>2021-06-30T19:11:31Z</time>
      </trkpt>
      <trkpt lat="45.07123" lon="-1.14375">
        <ele>12.15</ele>
        <time>2021-06-30T19:11:32Z</time>
      </trkpt>
      <trkpt lat="45.07101" lon="-1.14381">
        <ele>12.63</ele>
        <time>2021-06-30T19:11:35Z</time>
      </trkpt>
      <trkpt lat="45.07101" lon="-1.14381">
        <ele>12.63</ele>
        <time>2021-06-30T19:11:36Z</time>
      </trkpt>
      <trkpt lat="45.07033" lon="-1.144">
        <ele>11.67</ele>
        <time>2021-06-30T19:11:46Z</time>
      </trkpt>
      <trkpt lat="45.07027" lon="-1.14402">
        <ele>11.67</ele>
        <time>2021-06-30T19:11:47Z</time>
      </trkpt>
      <trkpt lat="45.0702" lon="-1.14404">
        <ele>11.67</ele>
        <time>2021-06-30T19:11:48Z</time>
      </trkpt>
      <trkpt lat="45.07013" lon="-1.14402">
        <ele>11.19</ele>
        <time>2021-06-30T19:11:49Z</time>
      </trkpt>
      <trkpt lat="45.07007" lon="-1.14401">
        <ele>11.67</ele>
        <time>2021-06-30T19:11:50Z</time>
      </trkpt>
      <trkpt lat="45.06946" lon="-1.1438">
        <ele>12.15</ele>
        <time>2021-06-30T19:12:01Z</time>
      </trkpt>
      <trkpt lat="45.06936" lon="-1.1437">
        <ele>12.15</ele>
        <time>2021-06-30T19:12:02Z</time>
      </trkpt>
      <trkpt lat="45.06936" lon="-1.1437">
        <ele>12.15</ele>
        <time>2021-06-30T19:12:03Z</time>
      </trkpt>
      <trkpt lat="45.06927" lon="-1.1436">
        <ele>12.15</ele>
        <time>2021-06-30T19:12:04Z</time>
      </trkpt>
      <trkpt lat="45.06927" lon="-1.1436">
        <ele>12.15</ele>
        <time>2021-06-30T19:12:05Z</time>
      </trkpt>
      <trkpt lat="45.06923" lon="-1.14354">
        <ele>12.15</ele>
        <time>2021-06-30T19:12:06Z</time>
      </trkpt>
      <trkpt lat="45.06919" lon="-1.14348">
        <ele>12.15</ele>
        <time>2021-06-30T19:12:07Z</time>
      </trkpt>
      <trkpt lat="45.06863" lon="-1.14267">
        <ele>11.19</ele>
        <time>2021-06-30T19:12:17Z</time>
      </trkpt>
      <trkpt lat="45.06789" lon="-1.14149">
        <ele>11.19</ele>
        <time>2021-06-30T19:12:30Z</time>
      </trkpt>
      <trkpt lat="45.06778" lon="-1.14115">
        <ele>10.23</ele>
        <time>2021-06-30T19:12:35Z</time>
      </trkpt>
      <trkpt lat="45.06776" lon="-1.14109">
        <ele>9.75</ele>
        <time>2021-06-30T19:12:36Z</time>
      </trkpt>
      <trkpt lat="45.06767" lon="-1.14103">
        <ele>9.75</ele>
        <time>2021-06-30T19:12:38Z</time>
      </trkpt>
      <trkpt lat="45.06766" lon="-1.1408">
        <ele>9.27</ele>
        <time>2021-06-30T19:12:39Z</time>
      </trkpt>
      <trkpt lat="45.0676" lon="-1.14069">
        <ele>9.27</ele>
        <time>2021-06-30T19:12:42Z</time>
      </trkpt>
      <trkpt lat="45.06758" lon="-1.14063">
        <ele>9.27</ele>
        <time>2021-06-30T19:12:43Z</time>
      </trkpt>
      <trkpt lat="45.06712" lon="-1.13971">
        <ele>10.23</ele>
        <time>2021-06-30T19:12:54Z</time>
      </trkpt>
      <trkpt lat="45.06641" lon="-1.13826">
        <ele>10.71</ele>
        <time>2021-06-30T19:13:08Z</time>
      </trkpt>
      <trkpt lat="45.06555" lon="-1.13682">
        <ele>12.15</ele>
        <time>2021-06-30T19:13:22Z</time>
      </trkpt>
      <trkpt lat="45.06401" lon="-1.13505">
        <ele>9.75</ele>
        <time>2021-06-30T19:13:39Z</time>
      </trkpt>
      <trkpt lat="45.06331" lon="-1.13387">
        <ele>9.75</ele>
        <time>2021-06-30T19:13:51Z</time>
      </trkpt>
      <trkpt lat="45.06293" lon="-1.1332">
        <ele>10.23</ele>
        <time>2021-06-30T19:14:02Z</time>
      </trkpt>
      <trkpt lat="45.06218" lon="-1.13178">
        <ele>10.71</ele>
        <time>2021-06-30T19:14:16Z</time>
      </trkpt>
      <trkpt lat="45.06182" lon="-1.13041">
        <ele>9.75</ele>
        <time>2021-06-30T19:14:26Z</time>
      </trkpt>
      <trkpt lat="45.0614" lon="-1.12874">
        <ele>9.27</ele>
        <time>2021-06-30T19:14:38Z</time>
      </trkpt>
      <trkpt lat="45.06135" lon="-1.12861">
        <ele>8.79</ele>
        <time>2021-06-30T19:14:39Z</time>
      </trkpt>
      <trkpt lat="45.06128" lon="-1.12852">
        <ele>8.31</ele>
        <time>2021-06-30T19:14:40Z</time>
      </trkpt>
      <trkpt lat="45.06092" lon="-1.128">
        <ele>11.19</ele>
        <time>2021-06-30T19:14:45Z</time>
      </trkpt>
      <trkpt lat="45.06086" lon="-1.12788">
        <ele>11.67</ele>
        <time>2021-06-30T19:14:46Z</time>
      </trkpt>
      <trkpt lat="45.06081" lon="-1.12776">
        <ele>11.19</ele>
        <time>2021-06-30T19:14:47Z</time>
      </trkpt>
      <trkpt lat="45.06076" lon="-1.12762">
        <ele>11.67</ele>
        <time>2021-06-30T19:14:48Z</time>
      </trkpt>
      <trkpt lat="45.06068" lon="-1.12733">
        <ele>10.71</ele>
        <time>2021-06-30T19:14:49Z</time>
      </trkpt>
      <trkpt lat="45.06068" lon="-1.12733">
        <ele>10.71</ele>
        <time>2021-06-30T19:14:50Z</time>
      </trkpt>
      <trkpt lat="45.06058" lon="-1.12582">
        <ele>12.15</ele>
        <time>2021-06-30T19:15:00Z</time>
      </trkpt>
      <trkpt lat="45.06059" lon="-1.12464">
        <ele>14.08</ele>
        <time>2021-06-30T19:15:10Z</time>
      </trkpt>
      <trkpt lat="45.06063" lon="-1.12429">
        <ele>14.08</ele>
        <time>2021-06-30T19:15:12Z</time>
      </trkpt>
      <trkpt lat="45.06067" lon="-1.12417">
        <ele>13.12</ele>
        <time>2021-06-30T19:15:13Z</time>
      </trkpt>
      <trkpt lat="45.06114" lon="-1.12282">
        <ele>10.23</ele>
        <time>2021-06-30T19:15:23Z</time>
      </trkpt>
      <trkpt lat="45.06179" lon="-1.12112">
        <ele>9.27</ele>
        <time>2021-06-30T19:15:34Z</time>
      </trkpt>
      <trkpt lat="45.06251" lon="-1.11927">
        <ele>7.83</ele>
        <time>2021-06-30T19:15:45Z</time>
      </trkpt>
      <trkpt lat="45.06373" lon="-1.1161">
        <ele>7.35</ele>
        <time>2021-06-30T19:15:59Z</time>
      </trkpt>
      <trkpt lat="45.06612" lon="-1.10988">
        <ele>6.87</ele>
        <time>2021-06-30T19:16:25Z</time>
      </trkpt>
      <trkpt lat="45.06801" lon="-1.105">
        <ele>7.35</ele>
        <time>2021-06-30T19:16:45Z</time>
      </trkpt>
      <trkpt lat="45.06998" lon="-1.09988">
        <ele>7.83</ele>
        <time>2021-06-30T19:17:06Z</time>
      </trkpt>
      <trkpt lat="45.07148" lon="-1.09596">
        <ele>7.35</ele>
        <time>2021-06-30T19:17:23Z</time>
      </trkpt>
      <trkpt lat="45.07288" lon="-1.09228">
        <ele>7.83</ele>
        <time>2021-06-30T19:17:41Z</time>
      </trkpt>
      <trkpt lat="45.07304" lon="-1.09166">
        <ele>9.27</ele>
        <time>2021-06-30T19:17:43Z</time>
      </trkpt>
      <trkpt lat="45.07334" lon="-1.08911">
        <ele>11.67</ele>
        <time>2021-06-30T19:17:55Z</time>
      </trkpt>
      <trkpt lat="45.0738" lon="-1.08487">
        <ele>12.63</ele>
        <time>2021-06-30T19:18:13Z</time>
      </trkpt>
      <trkpt lat="45.07429" lon="-1.08055">
        <ele>13.6</ele>
        <time>2021-06-30T19:18:30Z</time>
      </trkpt>
      <trkpt lat="45.07473" lon="-1.07666">
        <ele>14.56</ele>
        <time>2021-06-30T19:18:45Z</time>
      </trkpt>
      <trkpt lat="45.07514" lon="-1.07291">
        <ele>13.6</ele>
        <time>2021-06-30T19:19:01Z</time>
      </trkpt>
      <trkpt lat="45.07559" lon="-1.06886">
        <ele>16</ele>
        <time>2021-06-30T19:19:18Z</time>
      </trkpt>
      <trkpt lat="45.07603" lon="-1.06496">
        <ele>15.52</ele>
        <time>2021-06-30T19:19:34Z</time>
      </trkpt>
      <trkpt lat="45.07654" lon="-1.0603">
        <ele>14.56</ele>
        <time>2021-06-30T19:19:52Z</time>
      </trkpt>
      <trkpt lat="45.07693" lon="-1.05668">
        <ele>14.56</ele>
        <time>2021-06-30T19:20:07Z</time>
      </trkpt>
      <trkpt lat="45.07717" lon="-1.05456">
        <ele>13.12</ele>
        <time>2021-06-30T19:20:18Z</time>
      </trkpt>
      <trkpt lat="45.07736" lon="-1.0528">
        <ele>15.04</ele>
        <time>2021-06-30T19:20:28Z</time>
      </trkpt>
      <trkpt lat="45.07761" lon="-1.05065">
        <ele>16.96</ele>
        <time>2021-06-30T19:20:41Z</time>
      </trkpt>
      <trkpt lat="45.07772" lon="-1.04954">
        <ele>17.44</ele>
        <time>2021-06-30T19:20:51Z</time>
      </trkpt>
      <trkpt lat="45.07787" lon="-1.04826">
        <ele>16.96</ele>
        <time>2021-06-30T19:21:03Z</time>
      </trkpt>
      <trkpt lat="45.07801" lon="-1.04706">
        <ele>17.44</ele>
        <time>2021-06-30T19:21:16Z</time>
      </trkpt>
      <trkpt lat="45.07811" lon="-1.04635">
        <ele>18.4</ele>
        <time>2021-06-30T19:21:24Z</time>
      </trkpt>
      <trkpt lat="45.07812" lon="-1.04628">
        <ele>17.92</ele>
        <time>2021-06-30T19:21:25Z</time>
      </trkpt>
      <trkpt lat="45.07813" lon="-1.04623">
        <ele>17.92</ele>
        <time>2021-06-30T19:21:26Z</time>
      </trkpt>
      <trkpt lat="45.07814" lon="-1.04618">
        <ele>18.4</ele>
        <time>2021-06-30T19:21:27Z</time>
      </trkpt>
      <trkpt lat="45.07813" lon="-1.0461">
        <ele>18.88</ele>
        <time>2021-06-30T19:21:28Z</time>
      </trkpt>
      <trkpt lat="45.07809" lon="-1.04599">
        <ele>18.88</ele>
        <time>2021-06-30T19:21:30Z</time>
      </trkpt>
      <trkpt lat="45.0781" lon="-1.04595">
        <ele>18.88</ele>
        <time>2021-06-30T19:21:31Z</time>
      </trkpt>
      <trkpt lat="45.07811" lon="-1.04591">
        <ele>18.4</ele>
        <time>2021-06-30T19:21:32Z</time>
      </trkpt>
      <trkpt lat="45.07816" lon="-1.0459">
        <ele>18.4</ele>
        <time>2021-06-30T19:21:33Z</time>
      </trkpt>
      <trkpt lat="45.07819" lon="-1.04589">
        <ele>17.92</ele>
        <time>2021-06-30T19:21:34Z</time>
      </trkpt>
      <trkpt lat="45.07823" lon="-1.04591">
        <ele>17.44</ele>
        <time>2021-06-30T19:21:35Z</time>
      </trkpt>
      <trkpt lat="45.07826" lon="-1.04593">
        <ele>17.44</ele>
        <time>2021-06-30T19:21:36Z</time>
      </trkpt>
      <trkpt lat="45.07826" lon="-1.04593">
        <ele>16.96</ele>
        <time>2021-06-30T19:21:37Z</time>
      </trkpt>
      <trkpt lat="45.07833" lon="-1.04605">
        <ele>16.48</ele>
        <time>2021-06-30T19:21:38Z</time>
      </trkpt>
      <trkpt lat="45.07842" lon="-1.04606">
        <ele>16</ele>
        <time>2021-06-30T19:21:39Z</time>
      </trkpt>
      <trkpt lat="45.07842" lon="-1.04606">
        <ele>16</ele>
        <time>2021-06-30T19:21:40Z</time>
      </trkpt>
      <trkpt lat="45.07846" lon="-1.04607">
        <ele>15.52</ele>
        <time>2021-06-30T19:21:41Z</time>
      </trkpt>
      <trkpt lat="45.0792" lon="-1.0461">
        <ele>15.52</ele>
        <time>2021-06-30T19:21:53Z</time>
      </trkpt>
      <trkpt lat="45.08018" lon="-1.04608">
        <ele>16.48</ele>
        <time>2021-06-30T19:22:06Z</time>
      </trkpt>
      <trkpt lat="45.08138" lon="-1.04606">
        <ele>16</ele>
        <time>2021-06-30T19:22:16Z</time>
      </trkpt>
      <trkpt lat="45.08298" lon="-1.04604">
        <ele>16.96</ele>
        <time>2021-06-30T19:22:28Z</time>
      </trkpt>
      <trkpt lat="45.08356" lon="-1.04602">
        <ele>15.04</ele>
        <time>2021-06-30T19:22:36Z</time>
      </trkpt>
      <trkpt lat="45.0848" lon="-1.046">
        <ele>16</ele>
        <time>2021-06-30T19:22:46Z</time>
      </trkpt>
      <trkpt lat="45.08683" lon="-1.04596">
        <ele>15.52</ele>
        <time>2021-06-30T19:23:00Z</time>
      </trkpt>
      <trkpt lat="45.08924" lon="-1.04592">
        <ele>17.92</ele>
        <time>2021-06-30T19:23:15Z</time>
      </trkpt>
      <trkpt lat="45.0918" lon="-1.04589">
        <ele>13.12</ele>
        <time>2021-06-30T19:23:30Z</time>
      </trkpt>
      <trkpt lat="45.09485" lon="-1.04584">
        <ele>14.08</ele>
        <time>2021-06-30T19:23:47Z</time>
      </trkpt>
      <trkpt lat="45.09782" lon="-1.04579">
        <ele>14.56</ele>
        <time>2021-06-30T19:24:02Z</time>
      </trkpt>
      <trkpt lat="45.10231" lon="-1.04572">
        <ele>13.6</ele>
        <time>2021-06-30T19:24:24Z</time>
      </trkpt>
      <trkpt lat="45.10667" lon="-1.04566">
        <ele>12.63</ele>
        <time>2021-06-30T19:24:46Z</time>
      </trkpt>
      <trkpt lat="45.11095" lon="-1.04559">
        <ele>13.6</ele>
        <time>2021-06-30T19:25:07Z</time>
      </trkpt>
      <trkpt lat="45.11539" lon="-1.04552">
        <ele>12.63</ele>
        <time>2021-06-30T19:25:28Z</time>
      </trkpt>
      <trkpt lat="45.12091" lon="-1.04545">
        <ele>13.12</ele>
        <time>2021-06-30T19:25:54Z</time>
      </trkpt>
      <trkpt lat="45.12438" lon="-1.0454">
        <ele>12.63</ele>
        <time>2021-06-30T19:26:11Z</time>
      </trkpt>
      <trkpt lat="45.12817" lon="-1.04536">
        <ele>12.63</ele>
        <time>2021-06-30T19:26:31Z</time>
      </trkpt>
      <trkpt lat="45.13197" lon="-1.04531">
        <ele>13.6</ele>
        <time>2021-06-30T19:26:51Z</time>
      </trkpt>
      <trkpt lat="45.13557" lon="-1.04526">
        <ele>13.12</ele>
        <time>2021-06-30T19:27:10Z</time>
      </trkpt>
      <trkpt lat="45.13985" lon="-1.0452">
        <ele>12.63</ele>
        <time>2021-06-30T19:27:34Z</time>
      </trkpt>
      <trkpt lat="45.14419" lon="-1.04517">
        <ele>13.12</ele>
        <time>2021-06-30T19:27:56Z</time>
      </trkpt>
      <trkpt lat="45.1459" lon="-1.04545">
        <ele>13.12</ele>
        <time>2021-06-30T19:28:06Z</time>
      </trkpt>
      <trkpt lat="45.14922" lon="-1.04643">
        <ele>11.19</ele>
        <time>2021-06-30T19:28:22Z</time>
      </trkpt>
      <trkpt lat="45.15339" lon="-1.04767">
        <ele>12.15</ele>
        <time>2021-06-30T19:28:42Z</time>
      </trkpt>
      <trkpt lat="45.15603" lon="-1.04845">
        <ele>9.75</ele>
        <time>2021-06-30T19:28:55Z</time>
      </trkpt>
      <trkpt lat="45.15847" lon="-1.04918">
        <ele>9.75</ele>
        <time>2021-06-30T19:29:07Z</time>
      </trkpt>
      <trkpt lat="45.16296" lon="-1.05051">
        <ele>8.31</ele>
        <time>2021-06-30T19:29:28Z</time>
      </trkpt>
      <trkpt lat="45.16678" lon="-1.05165">
        <ele>6.87</ele>
        <time>2021-06-30T19:29:47Z</time>
      </trkpt>
      <trkpt lat="45.1709" lon="-1.05288">
        <ele>8.31</ele>
        <time>2021-06-30T19:30:09Z</time>
      </trkpt>
      <trkpt lat="45.17249" lon="-1.05337">
        <ele>7.83</ele>
        <time>2021-06-30T19:30:19Z</time>
      </trkpt>
      <trkpt lat="45.17419" lon="-1.05388">
        <ele>7.35</ele>
        <time>2021-06-30T19:30:33Z</time>
      </trkpt>
      <trkpt lat="45.17637" lon="-1.05452">
        <ele>7.83</ele>
        <time>2021-06-30T19:30:49Z</time>
      </trkpt>
      <trkpt lat="45.17888" lon="-1.05526">
        <ele>6.87</ele>
        <time>2021-06-30T19:31:08Z</time>
      </trkpt>
      <trkpt lat="45.18032" lon="-1.0557">
        <ele>7.83</ele>
        <time>2021-06-30T19:31:21Z</time>
      </trkpt>
      <trkpt lat="45.18215" lon="-1.05624">
        <ele>7.35</ele>
        <time>2021-06-30T19:31:37Z</time>
      </trkpt>
      <trkpt lat="45.18284" lon="-1.05646">
        <ele>8.31</ele>
        <time>2021-06-30T19:31:46Z</time>
      </trkpt>
      <trkpt lat="45.18337" lon="-1.05661">
        <ele>7.35</ele>
        <time>2021-06-30T19:31:57Z</time>
      </trkpt>
      <trkpt lat="45.18437" lon="-1.0569">
        <ele>6.87</ele>
        <time>2021-06-30T19:32:10Z</time>
      </trkpt>
      <trkpt lat="45.18529" lon="-1.05716">
        <ele>7.83</ele>
        <time>2021-06-30T19:32:24Z</time>
      </trkpt>
      <trkpt lat="45.18546" lon="-1.0572">
        <ele>10.23</ele>
        <time>2021-06-30T19:32:29Z</time>
      </trkpt>
      <trkpt lat="45.18547" lon="-1.05725">
        <ele>10.23</ele>
        <time>2021-06-30T19:32:30Z</time>
      </trkpt>
      <trkpt lat="45.18547" lon="-1.05729">
        <ele>10.71</ele>
        <time>2021-06-30T19:32:31Z</time>
      </trkpt>
      <trkpt lat="45.18548" lon="-1.05735">
        <ele>10.71</ele>
        <time>2021-06-30T19:32:32Z</time>
      </trkpt>
      <trkpt lat="45.18548" lon="-1.05742">
        <ele>10.71</ele>
        <time>2021-06-30T19:32:33Z</time>
      </trkpt>
      <trkpt lat="45.18559" lon="-1.0583">
        <ele>9.27</ele>
        <time>2021-06-30T19:32:46Z</time>
      </trkpt>
      <trkpt lat="45.18561" lon="-1.0586">
        <ele>10.23</ele>
        <time>2021-06-30T19:32:52Z</time>
      </trkpt>
      <trkpt lat="45.18561" lon="-1.05865">
        <ele>10.71</ele>
        <time>2021-06-30T19:32:53Z</time>
      </trkpt>
      <trkpt lat="45.18561" lon="-1.05871">
        <ele>10.23</ele>
        <time>2021-06-30T19:32:54Z</time>
      </trkpt>
      <trkpt lat="45.1856" lon="-1.05876">
        <ele>10.23</ele>
        <time>2021-06-30T19:32:55Z</time>
      </trkpt>
      <trkpt lat="45.18559" lon="-1.05883">
        <ele>9.75</ele>
        <time>2021-06-30T19:32:56Z</time>
      </trkpt>
      <trkpt lat="45.18558" lon="-1.0589">
        <ele>9.75</ele>
        <time>2021-06-30T19:32:57Z</time>
      </trkpt>
      <trkpt lat="45.18531" lon="-1.06025">
        <ele>9.75</ele>
        <time>2021-06-30T19:33:09Z</time>
      </trkpt>
      <trkpt lat="45.18484" lon="-1.06265">
        <ele>11.19</ele>
        <time>2021-06-30T19:33:26Z</time>
      </trkpt>
      <trkpt lat="45.18472" lon="-1.06333">
        <ele>12.63</ele>
        <time>2021-06-30T19:33:32Z</time>
      </trkpt>
      <trkpt lat="45.18471" lon="-1.0634">
        <ele>12.63</ele>
        <time>2021-06-30T19:33:33Z</time>
      </trkpt>
      <trkpt lat="45.18471" lon="-1.0634">
        <ele>12.15</ele>
        <time>2021-06-30T19:33:34Z</time>
      </trkpt>
      <trkpt lat="45.18478" lon="-1.06351">
        <ele>12.15</ele>
        <time>2021-06-30T19:33:35Z</time>
      </trkpt>
      <trkpt lat="45.18479" lon="-1.06357">
        <ele>12.15</ele>
        <time>2021-06-30T19:33:36Z</time>
      </trkpt>
      <trkpt lat="45.18477" lon="-1.06365">
        <ele>12.63</ele>
        <time>2021-06-30T19:33:37Z</time>
      </trkpt>
      <trkpt lat="45.18475" lon="-1.0637">
        <ele>12.15</ele>
        <time>2021-06-30T19:33:38Z</time>
      </trkpt>
      <trkpt lat="45.18475" lon="-1.0637">
        <ele>12.15</ele>
        <time>2021-06-30T19:33:39Z</time>
      </trkpt>
      <trkpt lat="45.18461" lon="-1.06383">
        <ele>12.15</ele>
        <time>2021-06-30T19:33:40Z</time>
      </trkpt>
      <trkpt lat="45.18461" lon="-1.06383">
        <ele>12.15</ele>
        <time>2021-06-30T19:33:41Z</time>
      </trkpt>
      <trkpt lat="45.1846" lon="-1.06391">
        <ele>11.67</ele>
        <time>2021-06-30T19:33:42Z</time>
      </trkpt>
      <trkpt lat="45.18458" lon="-1.064">
        <ele>11.67</ele>
        <time>2021-06-30T19:33:43Z</time>
      </trkpt>
      <trkpt lat="45.18429" lon="-1.06549">
        <ele>10.71</ele>
        <time>2021-06-30T19:33:55Z</time>
      </trkpt>
      <trkpt lat="45.18372" lon="-1.0685">
        <ele>10.71</ele>
        <time>2021-06-30T19:34:15Z</time>
      </trkpt>
      <trkpt lat="45.18331" lon="-1.07066">
        <ele>9.75</ele>
        <time>2021-06-30T19:34:32Z</time>
      </trkpt>
      <trkpt lat="45.18286" lon="-1.07297">
        <ele>9.75</ele>
        <time>2021-06-30T19:34:50Z</time>
      </trkpt>
      <trkpt lat="45.18247" lon="-1.07501">
        <ele>10.71</ele>
        <time>2021-06-30T19:35:06Z</time>
      </trkpt>
      <trkpt lat="45.18216" lon="-1.07674">
        <ele>10.23</ele>
        <time>2021-06-30T19:35:21Z</time>
      </trkpt>
      <trkpt lat="45.18178" lon="-1.07873">
        <ele>9.27</ele>
        <time>2021-06-30T19:35:35Z</time>
      </trkpt>
      <trkpt lat="45.18136" lon="-1.08081">
        <ele>8.79</ele>
        <time>2021-06-30T19:35:49Z</time>
      </trkpt>
      <trkpt lat="45.18132" lon="-1.08104">
        <ele>10.23</ele>
        <time>2021-06-30T19:35:54Z</time>
      </trkpt>
      <trkpt lat="45.1813" lon="-1.08103">
        <ele>9.75</ele>
        <time>2021-06-30T19:35:55Z</time>
      </trkpt>
      <trkpt lat="45.18128" lon="-1.08102">
        <ele>9.75</ele>
        <time>2021-06-30T19:35:56Z</time>
      </trkpt>
      <trkpt lat="45.18126" lon="-1.081">
        <ele>10.23</ele>
        <time>2021-06-30T19:35:57Z</time>
      </trkpt>
      <trkpt lat="45.18124" lon="-1.08099">
        <ele>10.23</ele>
        <time>2021-06-30T19:35:58Z</time>
      </trkpt>
      <trkpt lat="45.18121" lon="-1.08097">
        <ele>10.23</ele>
        <time>2021-06-30T19:35:59Z</time>
      </trkpt>
    </trkseg>
  </trk>
</gpx>